createdAt,value
2022-08-30T00:00:15.182Z,19.32
2022-08-30T00:02:21.074Z,19.21
2022-08-30T00:04:26.448Z,19.18
2022-08-30T00:06:33.789Z,19.17
2022-08-30T00:08:40.954Z,19.16
2022-08-30T00:10:46.099Z,19.17
2022-08-30T00:12:50.783Z,19.15
2022-08-30T00:14:56.642Z,19.16
2022-08-30T00:17:01.219Z,19.16
2022-08-30T00:19:05.836Z,19.13
2022-08-30T00:21:10.824Z,19.08
2022-08-30T00:23:18.461Z,19.06
2022-08-30T00:25:23.309Z,19.05
2022-08-30T00:27:27.921Z,18.96
2022-08-30T00:29:32.594Z,18.92
2022-08-30T00:31:37.170Z,18.88
2022-08-30T00:33:42.555Z,18.88
2022-08-30T00:35:47.348Z,18.84
2022-08-30T00:37:52.355Z,18.81
2022-08-30T00:39:59.525Z,18.74
2022-08-30T00:42:04.245Z,18.71
2022-08-30T00:44:08.926Z,18.68
2022-08-30T00:46:13.551Z,18.70
2022-08-30T00:48:18.227Z,18.74
2022-08-30T00:50:24.894Z,18.75
2022-08-30T00:52:29.479Z,18.77
2022-08-30T00:54:34.967Z,18.78
2022-08-30T00:56:42.345Z,18.79
2022-08-30T00:58:48.105Z,18.75
2022-08-30T01:00:53.378Z,18.69
2022-08-30T01:02:58.150Z,18.63
2022-08-30T01:05:04.517Z,18.53
2022-08-30T01:07:09.146Z,18.52
2022-08-30T01:09:13.726Z,18.51
2022-08-30T01:11:20.084Z,18.50
2022-08-30T01:13:28.536Z,18.54
2022-08-30T01:15:34.582Z,18.57
2022-08-30T01:17:41.507Z,18.59
2022-08-30T01:19:50.532Z,18.58
2022-08-30T01:21:57.794Z,18.58
2022-08-30T01:24:05.521Z,18.57
2022-08-30T01:26:10.389Z,18.57
2022-08-30T01:28:17.064Z,18.52
2022-08-30T01:30:24.134Z,18.48
2022-08-30T01:32:31.550Z,18.49
2022-08-30T01:34:36.144Z,18.49
2022-08-30T01:36:44.634Z,18.49
2022-08-30T01:38:50.919Z,18.47
2022-08-30T01:41:02.472Z,18.48
2022-08-30T01:43:07.045Z,18.48
2022-08-30T01:45:12.244Z,18.46
2022-08-30T01:47:18.294Z,18.40
2022-08-30T01:49:23.217Z,18.39
2022-08-30T01:51:33.062Z,18.39
2022-08-30T01:53:37.735Z,18.39
2022-08-30T01:55:42.574Z,18.41
2022-08-30T01:57:49.903Z,18.40
2022-08-30T01:59:54.444Z,18.42
2022-08-30T02:01:59.498Z,18.40
2022-08-30T02:04:08.339Z,18.37
2022-08-30T02:06:14.998Z,18.33
2022-08-30T02:08:19.584Z,18.32
2022-08-30T02:10:24.324Z,18.27
2022-08-30T02:12:30.328Z,18.17
2022-08-30T02:14:37.760Z,18.08
2022-08-30T02:16:42.643Z,18.10
2022-08-30T02:18:48.150Z,18.12
2022-08-30T02:20:52.956Z,18.14
2022-08-30T02:23:01.193Z,18.17
2022-08-30T02:25:06.179Z,18.17
2022-08-30T02:27:14.751Z,18.17
2022-08-30T02:29:19.294Z,18.14
2022-08-30T02:31:26.505Z,18.09
2022-08-30T02:33:31.795Z,18.06
2022-08-30T02:35:36.373Z,18.06
2022-08-30T02:37:40.901Z,18.06
2022-08-30T02:39:45.638Z,18.05
2022-08-30T02:41:50.185Z,18.04
2022-08-30T02:43:58.516Z,18.05
2022-08-30T02:46:03.198Z,18.04
2022-08-30T02:48:10.533Z,18.05
2022-08-30T02:50:16.079Z,18.04
2022-08-30T02:52:20.787Z,18.01
2022-08-30T02:54:33.475Z,17.96
2022-08-30T02:56:38.177Z,17.92
2022-08-30T02:58:43.455Z,17.86
2022-08-30T03:00:48.066Z,17.84
2022-08-30T03:02:55.405Z,17.80
2022-08-30T03:05:03.385Z,17.78
2022-08-30T03:07:08.322Z,17.74
2022-08-30T03:09:12.961Z,17.71
2022-08-30T03:11:17.539Z,17.68
2022-08-30T03:13:22.300Z,17.65
2022-08-30T03:15:27.266Z,17.63
2022-08-30T03:17:31.842Z,17.60
2022-08-30T03:19:36.697Z,17.59
2022-08-30T03:21:43.899Z,17.57
2022-08-30T03:23:48.627Z,17.54
2022-08-30T03:25:53.580Z,17.46
2022-08-30T03:27:58.573Z,17.41
2022-08-30T03:30:03.224Z,17.35
2022-08-30T03:32:08.130Z,17.31
2022-08-30T03:34:13.579Z,17.28
2022-08-30T03:36:18.191Z,17.31
2022-08-30T03:38:26.252Z,17.31
2022-08-30T03:40:30.952Z,17.34
2022-08-30T03:42:36.120Z,17.32
2022-08-30T03:44:41.082Z,17.32
2022-08-30T03:46:47.825Z,17.27
2022-08-30T03:48:52.430Z,17.26
2022-08-30T03:50:57.135Z,17.17
2022-08-30T03:53:02.122Z,17.17
2022-08-30T03:55:09.961Z,17.17
2022-08-30T03:57:19.879Z,17.12
2022-08-30T03:59:25.148Z,17.08
2022-08-30T04:01:29.875Z,17.04
2022-08-30T04:03:34.579Z,17.02
2022-08-30T04:05:39.153Z,17.00
2022-08-30T04:07:43.743Z,16.98
2022-08-30T04:09:48.477Z,16.96
2022-08-30T04:11:55.687Z,16.96
2022-08-30T04:14:00.547Z,16.93
2022-08-30T04:16:05.506Z,16.94
2022-08-30T04:18:10.234Z,16.95
2022-08-30T04:20:14.893Z,16.95
2022-08-30T04:22:19.494Z,16.94
2022-08-30T04:24:24.082Z,16.90
2022-08-30T04:26:29.415Z,16.86
2022-08-30T04:28:36.943Z,16.79
2022-08-30T04:30:42.484Z,16.80
2022-08-30T04:32:47.234Z,16.81
2022-08-30T04:34:51.857Z,16.83
2022-08-30T04:36:56.454Z,16.86
2022-08-30T04:39:01.518Z,16.87
2022-08-30T04:41:06.828Z,16.86
2022-08-30T04:43:13.001Z,16.89
2022-08-30T04:45:20.481Z,16.86
2022-08-30T04:47:25.086Z,16.89
2022-08-30T04:49:29.688Z,16.90
2022-08-30T04:51:34.348Z,16.90
2022-08-30T04:53:39.250Z,16.86
2022-08-30T04:55:44.220Z,16.86
2022-08-30T04:57:48.821Z,16.87
2022-08-30T04:59:53.493Z,16.82
2022-08-30T05:02:00.825Z,16.82
2022-08-30T05:04:07.265Z,16.81
2022-08-30T05:06:14.102Z,16.74
2022-08-30T05:08:24.333Z,16.80
2022-08-30T05:10:29.790Z,16.82
2022-08-30T05:12:34.366Z,16.85
2022-08-30T05:14:38.954Z,16.82
2022-08-30T05:16:44.344Z,16.78
2022-08-30T05:18:53.011Z,16.80
2022-08-30T05:21:05.652Z,16.83
2022-08-30T05:23:10.641Z,16.85
2022-08-30T05:25:15.315Z,16.86
2022-08-30T05:27:20.001Z,16.78
2022-08-30T05:29:24.966Z,16.67
2022-08-30T05:31:31.550Z,16.66
2022-08-30T05:33:38.908Z,16.66
2022-08-30T05:35:46.294Z,16.74
2022-08-30T05:37:51.019Z,16.78
2022-08-30T05:39:56.707Z,16.81
2022-08-30T05:42:01.807Z,16.79
2022-08-30T05:44:07.469Z,16.82
2022-08-30T05:46:13.331Z,16.81
2022-08-30T05:48:18.359Z,16.79
2022-08-30T05:50:23.492Z,16.79
2022-08-30T05:52:30.795Z,16.86
2022-08-30T05:54:35.345Z,16.91
2022-08-30T05:56:40.890Z,16.95
2022-08-30T05:58:45.922Z,16.97
2022-08-30T06:00:50.494Z,17.05
2022-08-30T06:02:56.325Z,17.06
2022-08-30T06:05:00.969Z,17.13
2022-08-30T06:07:05.964Z,17.20
2022-08-30T06:09:13.669Z,17.28
2022-08-30T06:11:19.454Z,17.37
2022-08-30T06:13:24.110Z,17.46
2022-08-30T06:15:28.723Z,17.54
2022-08-30T06:17:33.329Z,17.61
2022-08-30T06:19:37.896Z,17.67
2022-08-30T06:21:43.162Z,17.72
2022-08-30T06:23:47.814Z,17.79
2022-08-30T06:25:55.062Z,17.82
2022-08-30T06:27:59.605Z,17.87
2022-08-30T06:30:04.311Z,17.82
2022-08-30T06:32:08.968Z,17.81
2022-08-30T06:34:13.562Z,17.92
2022-08-30T06:36:19.329Z,18.01
2022-08-30T06:38:23.958Z,18.07
2022-08-30T06:40:28.619Z,18.16
2022-08-30T06:42:36.610Z,18.22
2022-08-30T06:44:45.793Z,18.30
2022-08-30T06:46:50.739Z,18.41
2022-08-30T06:48:56.254Z,18.43
2022-08-30T06:51:01.591Z,18.53
2022-08-30T06:53:07.475Z,18.64
2022-08-30T06:55:12.453Z,18.73
2022-08-30T06:57:17.023Z,18.83
2022-08-30T06:59:24.250Z,18.93
2022-08-30T07:01:30.294Z,18.95
2022-08-30T07:03:34.964Z,19.02
2022-08-30T07:05:39.598Z,19.10
2022-08-30T07:07:44.120Z,19.10
2022-08-30T07:09:48.958Z,19.18
2022-08-30T07:11:54.138Z,19.28
2022-08-30T07:13:58.767Z,19.44
2022-08-30T07:16:11.563Z,19.82
2022-08-30T07:18:29.240Z,20.44
2022-08-30T07:20:40.347Z,21.18
2022-08-30T07:22:45.586Z,21.66
2022-08-30T07:24:50.334Z,21.87
2022-08-30T07:26:54.914Z,22.01
2022-08-30T07:28:59.733Z,22.12
2022-08-30T07:33:12.229Z,22.02
2022-08-30T07:35:16.802Z,21.94
2022-08-30T07:37:21.392Z,21.83
2022-08-30T07:39:25.956Z,21.82
2022-08-30T07:41:32.296Z,21.69
2022-08-30T07:43:36.996Z,21.61
2022-08-30T07:45:41.944Z,21.34
2022-08-30T07:47:49.120Z,21.19
2022-08-30T07:49:53.781Z,21.14
2022-08-30T07:51:59.416Z,21.17
2022-08-30T07:54:04.029Z,21.26
2022-08-30T07:56:08.651Z,21.29
2022-08-30T07:58:13.266Z,21.39
2022-08-30T08:00:18.313Z,21.42
2022-08-30T08:02:23.392Z,21.40
2022-08-30T08:04:30.577Z,21.50
2022-08-30T08:06:35.334Z,21.53
2022-08-30T08:08:40.176Z,21.52
2022-08-30T08:10:44.891Z,21.41
2022-08-30T08:12:49.781Z,21.56
2022-08-30T08:14:57.121Z,21.48
2022-08-30T08:17:01.756Z,21.61
2022-08-30T08:19:09.380Z,21.45
2022-08-30T08:21:16.838Z,21.44
2022-08-30T08:23:22.106Z,21.58
2022-08-30T08:25:26.918Z,21.65
2022-08-30T08:27:31.683Z,21.70
2022-08-30T08:29:36.229Z,21.72
2022-08-30T08:31:41.558Z,21.82
2022-08-30T08:33:46.245Z,21.93
2022-08-30T08:35:50.864Z,22.00
2022-08-30T08:37:58.043Z,22.04
2022-08-30T08:40:02.788Z,22.18
2022-08-30T08:42:14.930Z,22.29
2022-08-30T08:44:25.780Z,22.40
2022-08-30T08:46:33.562Z,22.49
2022-08-30T08:48:58.971Z,22.63
2022-08-30T08:51:17.959Z,22.70
2022-08-30T08:53:47.622Z,22.68
2022-08-30T08:55:53.061Z,22.77
2022-08-30T08:57:58.828Z,22.81
2022-08-30T09:00:03.570Z,22.89
2022-08-30T09:02:20.598Z,22.93
2022-08-30T09:04:27.599Z,23.00
2022-08-30T09:06:45.450Z,23.09
2022-08-30T09:08:53.204Z,23.16
2022-08-30T09:11:03.518Z,23.11
2022-08-30T09:13:08.138Z,23.18
2022-08-30T09:15:19.968Z,23.20
2022-08-30T09:17:26.172Z,23.30
2022-08-30T09:19:35.672Z,23.42
2022-08-30T09:21:40.336Z,23.50
2022-08-30T09:23:54.042Z,23.57
2022-08-30T09:25:59.442Z,23.71
2022-08-30T09:28:12.282Z,23.80
2022-08-30T09:30:19.907Z,23.86
2022-08-30T09:32:28.390Z,23.92
2022-08-30T09:34:35.788Z,23.99
2022-08-30T09:36:43.901Z,24.10
2022-08-30T09:38:48.796Z,24.18
2022-08-30T09:40:57.634Z,24.23
2022-08-30T09:43:08.211Z,24.36
2022-08-30T09:45:20.582Z,24.47
2022-08-30T09:47:31.417Z,24.58
2022-08-30T09:49:39.286Z,24.52
2022-08-30T09:51:50.142Z,24.62
2022-08-30T09:54:17.058Z,24.68
2022-08-30T09:56:34.037Z,24.75
2022-08-30T09:58:54.140Z,24.83
2022-08-30T10:01:01.409Z,24.94
2022-08-30T10:03:10.580Z,25.00
2022-08-30T10:05:19.594Z,25.07
2022-08-30T10:07:28.968Z,25.11
2022-08-30T10:09:37.177Z,25.21
2022-08-30T10:11:49.577Z,25.22
2022-08-30T10:14:01.984Z,25.22
2022-08-30T10:16:13.512Z,25.33
2022-08-30T10:18:23.720Z,25.43
2022-08-30T10:20:33.081Z,25.40
2022-08-30T10:22:40.365Z,25.51
2022-08-30T10:24:47.812Z,25.62
2022-08-30T10:26:56.483Z,25.59
2022-08-30T10:29:03.625Z,25.47
2022-08-30T10:31:10.605Z,25.52
2022-08-30T10:33:18.227Z,25.39
2022-08-30T10:35:24.733Z,25.43
2022-08-30T10:37:30.292Z,25.57
2022-08-30T10:39:38.156Z,25.67
2022-08-30T10:41:43.186Z,25.74
2022-08-30T10:43:54.628Z,25.76
2022-08-30T10:46:02.744Z,25.79
2022-08-30T10:48:12.181Z,25.85
2022-08-30T10:50:21.429Z,25.90
2022-08-30T10:52:32.669Z,25.96
2022-08-30T10:54:40.182Z,25.93
2022-08-30T10:56:46.224Z,25.90
2022-08-30T10:58:54.539Z,25.86
2022-08-30T11:01:06.087Z,25.93
2022-08-30T11:03:36.393Z,25.97
2022-08-30T11:05:48.001Z,26.10
2022-08-30T11:07:56.919Z,26.09
2022-08-30T11:10:19.858Z,25.99
2022-08-30T11:12:34.525Z,26.07
2022-08-30T11:14:43.452Z,26.19
2022-08-30T11:16:49.785Z,26.19
2022-08-30T11:18:56.418Z,26.08
2022-08-30T11:21:15.777Z,26.15
2022-08-30T11:23:27.206Z,26.13
2022-08-30T11:25:53.514Z,26.18
2022-08-30T11:28:02.854Z,26.16
2022-08-30T11:30:22.240Z,26.13
2022-08-30T11:32:50.360Z,26.12
2022-08-30T11:35:04.197Z,26.14
2022-08-30T11:37:10.440Z,26.06
2022-08-30T11:39:16.166Z,26.16
2022-08-30T11:41:34.185Z,26.26
2022-08-30T11:43:55.668Z,26.30
2022-08-30T11:46:16.121Z,26.35
2022-08-30T11:48:36.306Z,26.45
2022-08-30T11:50:51.174Z,26.49
2022-08-30T11:53:01.303Z,26.31
2022-08-30T11:55:29.980Z,26.31
2022-08-30T11:57:41.597Z,26.37
2022-08-30T11:59:49.726Z,26.39
2022-08-30T12:01:54.879Z,26.42
2022-08-30T12:04:01.123Z,26.47
2022-08-30T12:06:08.746Z,26.54
2022-08-30T12:08:14.373Z,26.63
2022-08-30T12:10:24.661Z,26.63
2022-08-30T12:12:44.254Z,26.61
2022-08-30T12:14:54.987Z,26.66
2022-08-30T12:17:12.201Z,26.64
2022-08-30T12:19:18.951Z,26.78
2022-08-30T12:21:43.691Z,26.86
2022-08-30T12:23:52.043Z,26.72
2022-08-30T12:26:12.002Z,26.74
2022-08-30T12:28:18.748Z,26.78
2022-08-30T12:30:28.747Z,26.86
2022-08-30T12:32:33.682Z,26.97
2022-08-30T12:34:39.357Z,27.05
2022-08-30T12:36:52.832Z,26.99
2022-08-30T12:39:07.027Z,27.12
2022-08-30T12:41:13.437Z,27.01
2022-08-30T12:43:24.851Z,26.95
2022-08-30T12:45:34.274Z,26.94
2022-08-30T12:47:45.076Z,26.75
2022-08-30T12:49:50.674Z,26.72
2022-08-30T12:51:58.325Z,26.75
2022-08-30T12:54:08.687Z,26.64
2022-08-30T12:56:15.728Z,26.65
2022-08-30T12:58:20.363Z,26.73
2022-08-30T13:00:27.622Z,26.80
2022-08-30T13:02:44.774Z,26.82
2022-08-30T13:04:50.228Z,26.85
2022-08-30T13:06:58.657Z,26.82
2022-08-30T13:09:03.235Z,26.79
2022-08-30T13:11:09.313Z,26.81
2022-08-30T13:13:13.950Z,26.86
2022-08-30T13:15:21.476Z,26.71
2022-08-30T13:17:28.357Z,26.78
2022-08-30T13:19:35.492Z,26.79
2022-08-30T13:21:49.624Z,26.81
2022-08-30T13:23:58.381Z,26.88
2022-08-30T13:26:04.285Z,26.83
2022-08-30T13:28:09.869Z,26.79
2022-08-30T13:30:17.693Z,26.83
2022-08-30T13:32:22.637Z,26.86
2022-08-30T13:34:27.250Z,26.91
2022-08-30T13:36:33.370Z,26.93
2022-08-30T13:38:38.920Z,27.01
2022-08-30T13:40:46.218Z,27.04
2022-08-30T13:42:50.871Z,27.08
2022-08-30T13:44:56.570Z,27.07
2022-08-30T13:49:44.282Z,27.13
2022-08-30T13:52:18.422Z,27.23
2022-08-30T13:54:15.850Z,27.30
2022-08-30T13:56:24.782Z,27.40
2022-08-30T13:58:29.797Z,27.53
2022-08-30T14:00:37.835Z,27.60
2022-08-30T14:02:46.661Z,27.64
2022-08-30T14:04:56.833Z,27.72
2022-08-30T14:07:21.049Z,27.76
2022-08-30T14:09:25.913Z,27.87
2022-08-30T14:11:33.155Z,28.05
2022-08-30T14:13:38.114Z,28.17
2022-08-30T14:15:44.183Z,28.33
2022-08-30T14:17:50.505Z,28.41
2022-08-30T14:19:55.036Z,28.58
2022-08-30T14:22:00.022Z,28.80
2022-08-30T14:24:05.398Z,28.99
2022-08-30T14:26:14.296Z,28.91
2022-08-30T14:28:26.084Z,28.92
2022-08-30T14:30:31.874Z,29.06
2022-08-30T14:32:38.013Z,29.01
2022-08-30T14:34:42.563Z,29.00
2022-08-30T14:36:49.585Z,29.02
2022-08-30T14:38:54.525Z,29.07
2022-08-30T14:41:00.862Z,29.08
2022-08-30T14:43:05.509Z,28.86
2022-08-30T14:45:13.785Z,28.77
2022-08-30T14:47:18.349Z,28.67
2022-08-30T14:49:23.457Z,28.65
2022-08-30T14:51:27.995Z,28.64
2022-08-30T14:53:33.483Z,28.67
2022-08-30T14:55:38.556Z,28.68
2022-08-30T14:57:43.272Z,28.78
2022-08-30T14:59:47.876Z,28.90
2022-08-30T15:01:55.372Z,28.90
2022-08-30T15:04:00.630Z,28.85
2022-08-30T15:06:05.405Z,28.69
2022-08-30T15:08:10.024Z,28.59
2022-08-30T15:10:15.364Z,28.59
2022-08-30T15:12:20.227Z,28.53
2022-08-30T15:14:24.847Z,28.54
2022-08-30T15:16:30.630Z,28.50
2022-08-30T15:18:39.242Z,28.39
2022-08-30T15:20:49.535Z,28.24
2022-08-30T15:22:54.444Z,28.25
2022-08-30T15:25:01.675Z,28.43
2022-08-30T15:27:06.748Z,28.53
2022-08-30T15:29:11.685Z,28.79
2022-08-30T15:31:16.518Z,28.87
2022-08-30T15:33:21.128Z,28.92
2022-08-30T15:35:28.349Z,28.86
2022-08-30T15:37:32.960Z,28.76
2022-08-30T15:39:37.601Z,28.70
2022-08-30T15:41:45.890Z,28.66
2022-08-30T15:44:00.010Z,28.81
2022-08-30T15:46:16.771Z,28.95
2022-08-30T15:48:21.511Z,29.10
2022-08-30T15:50:28.901Z,29.14
2022-08-30T15:52:34.630Z,29.17
2022-08-30T15:54:39.294Z,29.06
2022-08-30T15:56:43.974Z,29.03
2022-08-30T15:58:49.396Z,28.97
2022-08-30T16:00:57.823Z,28.64
2022-08-30T16:03:02.460Z,28.40
2022-08-30T16:05:07.356Z,28.23
2022-08-30T16:07:14.507Z,28.20
2022-08-30T16:09:19.477Z,28.16
2022-08-30T16:11:25.351Z,28.10
2022-08-30T16:13:30.038Z,27.99
2022-08-30T16:15:34.651Z,27.93
2022-08-30T16:17:39.377Z,27.95
2022-08-30T16:19:43.962Z,27.85
2022-08-30T16:21:50.868Z,27.80
2022-08-30T16:23:59.963Z,27.77
2022-08-30T16:26:04.692Z,27.76
2022-08-30T16:28:09.443Z,27.75
2022-08-30T16:30:15.079Z,27.69
2022-08-30T16:32:20.033Z,27.76
2022-08-30T16:34:24.664Z,27.73
2022-08-30T16:36:30.593Z,27.65
2022-08-30T16:38:35.526Z,27.48
2022-08-30T16:40:42.791Z,27.37
2022-08-30T16:42:50.314Z,27.38
2022-08-30T16:44:55.321Z,27.25
2022-08-30T16:47:00.360Z,27.23
2022-08-30T16:49:05.496Z,27.14
2022-08-30T16:51:12.257Z,27.08
2022-08-30T16:53:16.942Z,27.02
2022-08-30T16:55:21.863Z,26.94
2022-08-30T16:57:29.318Z,26.88
2022-08-30T16:59:34.445Z,26.77
2022-08-30T17:01:42.444Z,26.72
2022-08-30T17:03:48.914Z,26.70
2022-08-30T17:05:57.200Z,26.66
2022-08-30T17:08:02.047Z,26.57
2022-08-30T17:10:08.858Z,26.52
2022-08-30T17:12:13.597Z,26.46
2022-08-30T17:14:27.853Z,26.41
2022-08-30T17:16:33.741Z,26.36
2022-08-30T17:18:38.565Z,26.32
2022-08-30T17:20:44.396Z,26.22
2022-08-30T17:22:49.178Z,26.17
2022-08-30T17:24:53.927Z,26.17
2022-08-30T17:26:58.616Z,26.10
2022-08-30T17:29:03.854Z,26.06
2022-08-30T17:31:11.255Z,26.01
2022-08-30T17:33:15.935Z,25.92
2022-08-30T17:35:22.920Z,25.86
2022-08-30T17:37:27.532Z,25.82
2022-08-30T17:39:32.143Z,25.73
2022-08-30T17:41:37.174Z,25.68
2022-08-30T17:43:42.123Z,25.63
2022-08-30T17:45:47.074Z,25.59
2022-08-30T17:47:56.503Z,25.49
2022-08-30T17:50:03.604Z,25.45
2022-08-30T17:52:11.639Z,25.46
2022-08-30T17:54:17.058Z,25.41
2022-08-30T17:56:22.401Z,25.35
2022-08-30T17:58:27.377Z,25.27
2022-08-30T18:00:31.908Z,25.22
2022-08-30T18:02:36.609Z,25.14
2022-08-30T18:04:45.435Z,25.10
2022-08-30T18:06:50.101Z,25.04
2022-08-30T18:08:56.405Z,24.99
2022-08-30T18:11:01.561Z,24.90
2022-08-30T18:13:06.165Z,24.87
2022-08-30T18:15:12.282Z,24.81
2022-08-30T18:17:17.311Z,24.75
2022-08-30T18:19:21.949Z,24.71
2022-08-30T18:21:29.145Z,24.66
2022-08-30T18:23:33.849Z,24.65
2022-08-30T18:25:38.468Z,24.56
2022-08-30T18:27:43.063Z,24.49
2022-08-30T18:29:52.754Z,24.44
2022-08-30T18:31:57.509Z,24.35
2022-08-30T18:34:02.835Z,24.29
2022-08-30T18:36:08.572Z,24.23
2022-08-30T18:38:15.901Z,24.18
2022-08-30T18:40:20.843Z,24.16
2022-08-30T18:42:25.589Z,24.15
2022-08-30T18:44:33.237Z,24.12
2022-08-30T18:47:31.902Z,24.07
2022-08-30T18:49:19.757Z,23.97
2022-08-30T18:51:25.321Z,23.94
2022-08-30T18:53:32.927Z,23.91
2022-08-30T18:55:37.542Z,23.84
2022-08-30T18:57:42.350Z,23.77
2022-08-30T18:59:49.334Z,23.76
2022-08-30T19:01:53.979Z,23.75
2022-08-30T19:03:58.618Z,23.70
2022-08-30T19:06:05.035Z,23.68
2022-08-30T19:08:10.090Z,23.66
2022-08-30T19:10:21.122Z,23.64
2022-08-30T19:12:27.617Z,23.64
2022-08-30T19:14:32.354Z,23.63
2022-08-30T19:16:37.479Z,23.56
2022-08-30T19:18:42.906Z,23.49
2022-08-30T19:20:47.624Z,23.45
2022-08-30T19:23:08.903Z,23.45
2022-08-30T19:25:21.034Z,23.40
2022-08-30T19:27:37.949Z,23.37
2022-08-30T19:29:45.091Z,23.28
2022-08-30T19:31:51.655Z,23.27
2022-08-30T19:33:57.318Z,23.25
2022-08-30T19:36:02.071Z,23.23
2022-08-30T19:38:06.691Z,23.22
2022-08-30T19:40:14.074Z,23.20
2022-08-30T19:42:21.312Z,23.17
2022-08-30T19:44:26.286Z,23.11
2022-08-30T19:46:30.819Z,23.04
2022-08-30T19:48:43.050Z,23.03
2022-08-30T19:50:47.844Z,22.99
2022-08-30T19:52:54.447Z,22.95
2022-08-30T19:54:59.940Z,22.89
2022-08-30T19:57:04.642Z,22.83
2022-08-30T19:59:12.999Z,22.77
2022-08-30T20:01:33.083Z,22.72
2022-08-30T20:03:39.835Z,22.67
2022-08-30T20:05:44.882Z,22.61
2022-08-30T20:07:51.033Z,22.55
2022-08-30T20:09:56.208Z,22.47
2022-08-30T20:12:00.857Z,22.46
2022-08-30T20:14:06.333Z,22.40
2022-08-30T20:16:14.424Z,22.42
2022-08-30T20:18:19.609Z,22.38
2022-08-30T20:20:25.400Z,22.35
2022-08-30T20:22:30.673Z,22.35
2022-08-30T20:26:41.241Z,22.29
2022-08-30T20:28:45.836Z,22.28
2022-08-30T20:30:50.513Z,22.26
2022-08-30T20:32:57.672Z,22.20
2022-08-30T20:35:02.411Z,22.20
2022-08-30T20:37:08.299Z,22.14
2022-08-30T20:39:17.594Z,22.12
2022-08-30T20:41:23.485Z,22.12
2022-08-30T20:43:29.047Z,22.13
2022-08-30T20:45:34.952Z,22.14
2022-08-30T20:47:40.338Z,22.08
2022-08-30T20:49:47.582Z,22.08
2022-08-30T20:51:54.522Z,22.10
2022-08-30T20:53:59.503Z,22.11
2022-08-30T20:56:04.116Z,22.12
2022-08-30T20:58:08.746Z,22.13
2022-08-30T21:00:14.652Z,22.12
2022-08-30T21:02:19.771Z,22.11
2022-08-30T21:04:24.630Z,22.03
2022-08-30T21:06:35.485Z,22.01
2022-08-30T21:08:40.378Z,21.99
2022-08-30T21:10:44.978Z,21.92
2022-08-30T21:12:49.725Z,21.95
2022-08-30T21:14:54.483Z,21.96
2022-08-30T21:16:59.086Z,21.95
2022-08-30T21:19:04.010Z,21.82
2022-08-30T21:21:12.571Z,21.84
2022-08-30T21:23:19.726Z,21.85
2022-08-30T21:25:24.444Z,21.82
2022-08-30T21:27:28.967Z,21.82
2022-08-30T21:29:33.848Z,21.80
2022-08-30T21:31:40.558Z,21.81
2022-08-30T21:33:45.449Z,21.81
2022-08-30T21:36:02.477Z,21.82
2022-08-30T21:38:09.048Z,21.80
2022-08-30T21:40:17.302Z,21.74
2022-08-30T21:42:22.006Z,21.74
2022-08-30T21:44:27.871Z,21.72
2022-08-30T21:46:32.935Z,21.72
2022-08-30T21:48:38.333Z,21.72
2022-08-30T21:50:43.817Z,21.69
2022-08-30T21:52:48.393Z,21.72
2022-08-30T21:54:53.040Z,21.69
2022-08-30T21:57:02.091Z,21.69
2022-08-30T21:59:07.125Z,21.67
2022-08-30T22:01:12.966Z,21.67
2022-08-30T22:03:17.916Z,21.68
2022-08-30T22:05:22.647Z,21.69
2022-08-30T22:07:27.786Z,21.68
2022-08-30T22:09:32.395Z,21.67
2022-08-30T22:11:37.760Z,21.64
2022-08-30T22:13:46.267Z,21.66
2022-08-30T22:15:52.781Z,21.63
2022-08-30T22:17:57.425Z,21.63
2022-08-30T22:20:02.023Z,21.62
2022-08-30T22:22:07.016Z,21.60
2022-08-30T22:24:11.811Z,21.59
2022-08-30T22:26:17.280Z,21.54
2022-08-30T22:28:22.223Z,21.53
2022-08-30T22:30:29.390Z,21.51
2022-08-30T22:32:34.031Z,21.48
2022-08-30T22:34:38.847Z,21.48
2022-08-30T22:36:43.521Z,21.47
2022-08-30T22:38:48.730Z,21.48
2022-08-30T22:40:54.743Z,21.43
2022-08-30T22:42:59.652Z,21.41
2022-08-30T22:45:04.434Z,21.38
2022-08-30T22:47:11.731Z,21.35
2022-08-30T22:49:16.404Z,21.32
2022-08-30T22:51:22.372Z,21.29
2022-08-30T22:53:26.993Z,21.25
2022-08-30T22:55:31.593Z,21.20
2022-08-30T22:57:37.154Z,21.19
2022-08-30T22:59:41.815Z,21.18
2022-08-30T23:01:47.286Z,21.16
2022-08-30T23:03:54.775Z,21.15
2022-08-30T23:05:59.447Z,21.11
2022-08-30T23:08:04.016Z,21.06
2022-08-30T23:10:09.536Z,21.04
2022-08-30T23:12:14.148Z,21.00
2022-08-30T23:14:18.783Z,20.98
2022-08-30T23:16:23.807Z,20.95
2022-08-30T23:18:28.410Z,20.94
2022-08-30T23:20:35.623Z,20.94
2022-08-30T23:22:40.346Z,20.93
2022-08-30T23:24:57.332Z,20.93
2022-08-30T23:27:14.988Z,20.91
2022-08-30T23:29:32.358Z,20.90
2022-08-30T23:31:49.451Z,20.89
2022-08-30T23:34:06.515Z,20.84
2022-08-30T23:36:29.844Z,20.78
2022-08-30T23:38:46.836Z,20.77
2022-08-30T23:41:03.963Z,20.75
2022-08-30T23:43:20.950Z,20.76
2022-08-30T23:45:38.072Z,20.77
2022-08-30T23:47:55.105Z,20.78
2022-08-30T23:50:12.122Z,20.80
2022-08-30T23:52:31.669Z,20.80
2022-08-30T23:54:48.780Z,20.77
2022-08-30T23:57:05.871Z,20.77
2022-08-30T23:59:22.873Z,20.70
